sensor_id;sensor_type;location;lat;lon;timestamp;temperature;humidity
12520;DHT22;6325;49.540;8.364;2023-08-12T00:01:20;21.80;99.90
12520;DHT22;6325;49.540;8.364;2023-08-12T00:03:47;21.90;99.90
12520;DHT22;6325;49.540;8.364;2023-08-12T00:06:14;22.40;99.90
12520;DHT22;6325;49.540;8.364;2023-08-12T00:08:41;22.00;99.90
12520;DHT22;6325;49.540;8.364;2023-08-12T00:11:07;21.50;99.90
12520;DHT22;6325;49.540;8.364;2023-08-12T00:13:34;22.00;99.90
12520;DHT22;6325;49.540;8.364;2023-08-12T00:16:01;22.10;99.90
12520;DHT22;6325;49.540;8.364;2023-08-12T00:18:29;21.60;99.90
12520;DHT22;6325;49.540;8.364;2023-08-12T00:21:05;22.00;99.90
12520;DHT22;6325;49.540;8.364;2023-08-12T00:23:32;22.00;99.90
12520;DHT22;6325;49.540;8.364;2023-08-12T00:25:59;22.30;99.90
12520;DHT22;6325;49.540;8.364;2023-08-12T00:28:26;21.80;99.90
12520;DHT22;6325;49.540;8.364;2023-08-12T00:30:53;22.00;99.90
12520;DHT22;6325;49.540;8.364;2023-08-12T00:33:20;22.00;99.90
12520;DHT22;6325;49.540;8.364;2023-08-12T00:35:48;21.60;99.90
12520;DHT22;6325;49.540;8.364;2023-08-12T00:38:14;22.60;99.90
12520;DHT22;6325;49.540;8.364;2023-08-12T00:40:41;22.60;99.90
12520;DHT22;6325;49.540;8.364;2023-08-12T00:43:08;21.70;99.90
12520;DHT22;6325;49.540;8.364;2023-08-12T00:45:35;22.10;99.90
12520;DHT22;6325;49.540;8.364;2023-08-12T00:48:03;21.90;99.90
12520;DHT22;6325;49.540;8.364;2023-08-12T00:50:30;22.00;99.90
12520;DHT22;6325;49.540;8.364;2023-08-12T00:52:59;21.80;99.90
12520;DHT22;6325;49.540;8.364;2023-08-12T00:55:25;22.20;99.90
12520;DHT22;6325;49.540;8.364;2023-08-12T00:57:52;22.20;99.90
12520;DHT22;6325;49.540;8.364;2023-08-12T01:00:19;21.80;99.90
12520;DHT22;6325;49.540;8.364;2023-08-12T01:02:48;22.30;99.90
12520;DHT22;6325;49.540;8.364;2023-08-12T01:05:15;22.40;99.90
12520;DHT22;6325;49.540;8.364;2023-08-12T01:07:42;21.80;99.90
12520;DHT22;6325;49.540;8.364;2023-08-12T01:10:12;22.30;99.90
12520;DHT22;6325;49.540;8.364;2023-08-12T01:12:53;22.30;99.90
12520;DHT22;6325;49.540;8.364;2023-08-12T01:15:23;22.50;99.90
12520;DHT22;6325;49.540;8.364;2023-08-12T01:17:53;22.10;99.90
12520;DHT22;6325;49.540;8.364;2023-08-12T01:20:21;22.20;99.90
12520;DHT22;6325;49.540;8.364;2023-08-12T01:22:55;22.70;99.90
12520;DHT22;6325;49.540;8.364;2023-08-12T01:25:23;22.40;99.90
12520;DHT22;6325;49.540;8.364;2023-08-12T01:27:50;22.90;99.90
12520;DHT22;6325;49.540;8.364;2023-08-12T01:30:18;22.40;99.90
12520;DHT22;6325;49.540;8.364;2023-08-12T01:32:53;23.00;99.90
12520;DHT22;6325;49.540;8.364;2023-08-12T01:35:23;22.10;99.90
12520;DHT22;6325;49.540;8.364;2023-08-12T01:37:52;22.50;99.90
12520;DHT22;6325;49.540;8.364;2023-08-12T01:40:20;23.00;99.90
12520;DHT22;6325;49.540;8.364;2023-08-12T01:42:48;22.40;99.90
12520;DHT22;6325;49.540;8.364;2023-08-12T01:45:15;22.50;99.90
12520;DHT22;6325;49.540;8.364;2023-08-12T01:47:43;22.40;99.90
12520;DHT22;6325;49.540;8.364;2023-08-12T01:50:10;22.00;99.90
12520;DHT22;6325;49.540;8.364;2023-08-12T01:52:37;22.40;99.90
12520;DHT22;6325;49.540;8.364;2023-08-12T01:55:04;22.40;99.90
12520;DHT22;6325;49.540;8.364;2023-08-12T01:57:31;22.80;99.90
12520;DHT22;6325;49.540;8.364;2023-08-12T02:00:00;22.30;99.90
12520;DHT22;6325;49.540;8.364;2023-08-12T02:02:27;22.70;99.90
12520;DHT22;6325;49.540;8.364;2023-08-12T02:04:54;22.00;99.90
12520;DHT22;6325;49.540;8.364;2023-08-12T02:07:20;22.00;99.90
12520;DHT22;6325;49.540;8.364;2023-08-12T02:09:47;22.40;99.90
12520;DHT22;6325;49.540;8.364;2023-08-12T02:12:14;22.40;99.90
12520;DHT22;6325;49.540;8.364;2023-08-12T02:14:41;22.20;99.90
12520;DHT22;6325;49.540;8.364;2023-08-12T02:17:09;22.50;99.90
12520;DHT22;6325;49.540;8.364;2023-08-12T02:19:36;22.30;99.90
12520;DHT22;6325;49.540;8.364;2023-08-12T02:22:03;22.50;99.90
12520;DHT22;6325;49.540;8.364;2023-08-12T02:24:30;23.00;99.90
12520;DHT22;6325;49.540;8.364;2023-08-12T02:26:56;22.00;99.90
12520;DHT22;6325;49.540;8.364;2023-08-12T02:29:23;22.40;99.90
12520;DHT22;6325;49.540;8.364;2023-08-12T02:31:50;22.40;99.90
12520;DHT22;6325;49.540;8.364;2023-08-12T02:34:18;22.30;99.90
12520;DHT22;6325;49.540;8.364;2023-08-12T02:36:45;22.00;99.90
12520;DHT22;6325;49.540;8.364;2023-08-12T02:39:12;22.40;99.90
12520;DHT22;6325;49.540;8.364;2023-08-12T02:41:38;22.20;99.90
12520;DHT22;6325;49.540;8.364;2023-08-12T02:44:05;22.20;99.90
12520;DHT22;6325;49.540;8.364;2023-08-12T02:46:32;21.70;99.90
12520;DHT22;6325;49.540;8.364;2023-08-12T02:48:59;22.40;99.90
12520;DHT22;6325;49.540;8.364;2023-08-12T02:51:27;22.30;99.90
12520;DHT22;6325;49.540;8.364;2023-08-12T02:53:54;22.20;99.90
12520;DHT22;6325;49.540;8.364;2023-08-12T02:56:20;22.20;99.90
12520;DHT22;6325;49.540;8.364;2023-08-12T02:58:47;22.10;99.90
12520;DHT22;6325;49.540;8.364;2023-08-12T03:01:14;22.20;99.90
12520;DHT22;6325;49.540;8.364;2023-08-12T03:03:41;22.30;99.90
12520;DHT22;6325;49.540;8.364;2023-08-12T03:06:08;22.40;99.90
12520;DHT22;6325;49.540;8.364;2023-08-12T03:08:36;22.40;99.90
12520;DHT22;6325;49.540;8.364;2023-08-12T03:11:03;22.50;99.90
12520;DHT22;6325;49.540;8.364;2023-08-12T03:13:30;22.70;99.90
12520;DHT22;6325;49.540;8.364;2023-08-12T03:15:57;22.60;99.90
12520;DHT22;6325;49.540;8.364;2023-08-12T03:18:24;22.30;99.90
12520;DHT22;6325;49.540;8.364;2023-08-12T03:20:50;22.70;99.90
12520;DHT22;6325;49.540;8.364;2023-08-12T03:23:17;22.70;99.90
12520;DHT22;6325;49.540;8.364;2023-08-12T03:25:46;22.70;99.90
12520;DHT22;6325;49.540;8.364;2023-08-12T03:28:13;22.70;99.90
12520;DHT22;6325;49.540;8.364;2023-08-12T03:30:40;22.60;99.90
12520;DHT22;6325;49.540;8.364;2023-08-12T03:33:06;22.90;99.90
12520;DHT22;6325;49.540;8.364;2023-08-12T03:35:33;22.60;99.90
12520;DHT22;6325;49.540;8.364;2023-08-12T03:38:00;22.60;99.90
12520;DHT22;6325;49.540;8.364;2023-08-12T03:40:27;22.90;99.90
12520;DHT22;6325;49.540;8.364;2023-08-12T03:42:55;22.30;99.90
12520;DHT22;6325;49.540;8.364;2023-08-12T03:45:21;22.40;99.90
12520;DHT22;6325;49.540;8.364;2023-08-12T03:47:48;22.00;99.90
12520;DHT22;6325;49.540;8.364;2023-08-12T03:50:15;22.90;99.90
12520;DHT22;6325;49.540;8.364;2023-08-12T03:52:42;22.30;99.90
12520;DHT22;6325;49.540;8.364;2023-08-12T03:55:09;22.20;99.90
12520;DHT22;6325;49.540;8.364;2023-08-12T03:57:36;22.20;99.90
12520;DHT22;6325;49.540;8.364;2023-08-12T04:00:05;22.50;99.90
12520;DHT22;6325;49.540;8.364;2023-08-12T04:02:34;22.00;99.90
12520;DHT22;6325;49.540;8.364;2023-08-12T04:05:01;22.10;99.90
12520;DHT22;6325;49.540;8.364;2023-08-12T04:07:27;21.90;99.90
12520;DHT22;6325;49.540;8.364;2023-08-12T04:09:54;22.10;99.90
12520;DHT22;6325;49.540;8.364;2023-08-12T04:12:21;22.10;99.90
12520;DHT22;6325;49.540;8.364;2023-08-12T04:14:48;22.20;99.90
12520;DHT22;6325;49.540;8.364;2023-08-12T04:17:16;22.00;99.90
12520;DHT22;6325;49.540;8.364;2023-08-12T04:19:42;22.00;99.90
12520;DHT22;6325;49.540;8.364;2023-08-12T04:22:09;22.50;99.90
12520;DHT22;6325;49.540;8.364;2023-08-12T04:24:38;22.70;99.90
12520;DHT22;6325;49.540;8.364;2023-08-12T04:27:05;22.20;99.90
12520;DHT22;6325;49.540;8.364;2023-08-12T04:29:32;22.10;99.90
12520;DHT22;6325;49.540;8.364;2023-08-12T04:31:58;22.00;99.90
12520;DHT22;6325;49.540;8.364;2023-08-12T04:34:27;21.80;99.90
12520;DHT22;6325;49.540;8.364;2023-08-12T04:36:53;21.90;99.90
12520;DHT22;6325;49.540;8.364;2023-08-12T04:39:20;22.00;99.90
12520;DHT22;6325;49.540;8.364;2023-08-12T04:41:47;22.00;99.90
12520;DHT22;6325;49.540;8.364;2023-08-12T04:44:14;22.10;99.90
12520;DHT22;6325;49.540;8.364;2023-08-12T04:46:41;22.00;99.90
12520;DHT22;6325;49.540;8.364;2023-08-12T04:49:08;22.00;99.90
12520;DHT22;6325;49.540;8.364;2023-08-12T04:51:37;22.40;99.90
12520;DHT22;6325;49.540;8.364;2023-08-12T04:54:04;21.90;99.90
12520;DHT22;6325;49.540;8.364;2023-08-12T04:56:31;22.50;99.90
12520;DHT22;6325;49.540;8.364;2023-08-12T04:58:57;22.00;99.90
12520;DHT22;6325;49.540;8.364;2023-08-12T05:01:24;21.70;99.90
12520;DHT22;6325;49.540;8.364;2023-08-12T05:03:51;22.10;99.90
12520;DHT22;6325;49.540;8.364;2023-08-12T05:06:18;22.00;99.90
12520;DHT22;6325;49.540;8.364;2023-08-12T05:08:46;22.00;99.90
12520;DHT22;6325;49.540;8.364;2023-08-12T05:11:13;22.00;99.90
12520;DHT22;6325;49.540;8.364;2023-08-12T05:13:39;21.90;99.90
12520;DHT22;6325;49.540;8.364;2023-08-12T05:16:06;22.40;99.90
12520;DHT22;6325;49.540;8.364;2023-08-12T05:18:33;21.90;99.90
12520;DHT22;6325;49.540;8.364;2023-08-12T05:21:00;21.80;99.90
12520;DHT22;6325;49.540;8.364;2023-08-12T05:23:26;21.90;99.90
12520;DHT22;6325;49.540;8.364;2023-08-12T05:25:55;21.60;99.90
12520;DHT22;6325;49.540;8.364;2023-08-12T05:28:21;21.90;99.90
12520;DHT22;6325;49.540;8.364;2023-08-12T05:30:48;21.90;99.90
12520;DHT22;6325;49.540;8.364;2023-08-12T05:33:15;21.80;99.90
12520;DHT22;6325;49.540;8.364;2023-08-12T05:35:42;21.80;99.90
12520;DHT22;6325;49.540;8.364;2023-08-12T05:38:08;21.80;99.90
12520;DHT22;6325;49.540;8.364;2023-08-12T05:40:35;21.50;99.90
12520;DHT22;6325;49.540;8.364;2023-08-12T05:43:04;21.80;99.90
12520;DHT22;6325;49.540;8.364;2023-08-12T05:45:31;21.90;99.90
12520;DHT22;6325;49.540;8.364;2023-08-12T05:47:57;21.90;99.90
12520;DHT22;6325;49.540;8.364;2023-08-12T05:50:24;21.60;99.90
12520;DHT22;6325;49.540;8.364;2023-08-12T05:52:51;21.90;99.90
12520;DHT22;6325;49.540;8.364;2023-08-12T05:55:18;21.90;99.90
12520;DHT22;6325;49.540;8.364;2023-08-12T05:57:44;22.30;99.90
12520;DHT22;6325;49.540;8.364;2023-08-12T06:00:13;22.60;99.90
12520;DHT22;6325;49.540;8.364;2023-08-12T06:02:41;22.00;99.90
12520;DHT22;6325;49.540;8.364;2023-08-12T06:05:08;22.30;99.90
12520;DHT22;6325;49.540;8.364;2023-08-12T06:07:35;22.00;99.90
12520;DHT22;6325;49.540;8.364;2023-08-12T06:10:02;21.80;99.90
12520;DHT22;6325;49.540;8.364;2023-08-12T06:12:29;22.10;99.90
12520;DHT22;6325;49.540;8.364;2023-08-12T06:14:56;21.90;99.90
12520;DHT22;6325;49.540;8.364;2023-08-12T06:17:24;22.20;99.90
12520;DHT22;6325;49.540;8.364;2023-08-12T06:19:51;22.80;99.90
12520;DHT22;6325;49.540;8.364;2023-08-12T06:22:18;22.60;99.90
12520;DHT22;6325;49.540;8.364;2023-08-12T06:24:45;22.50;99.90
12520;DHT22;6325;49.540;8.364;2023-08-12T06:27:12;23.00;99.90
12520;DHT22;6325;49.540;8.364;2023-08-12T06:29:38;23.30;99.90
12520;DHT22;6325;49.540;8.364;2023-08-12T06:32:05;23.30;99.90
12520;DHT22;6325;49.540;8.364;2023-08-12T06:34:33;23.20;99.90
12520;DHT22;6325;49.540;8.364;2023-08-12T06:37:00;22.70;99.90
12520;DHT22;6325;49.540;8.364;2023-08-12T06:39:27;23.20;99.90
12520;DHT22;6325;49.540;8.364;2023-08-12T06:41:54;23.50;99.90
12520;DHT22;6325;49.540;8.364;2023-08-12T06:44:21;23.80;99.90
12520;DHT22;6325;49.540;8.364;2023-08-12T06:46:48;23.80;99.90
12520;DHT22;6325;49.540;8.364;2023-08-12T06:49:15;23.50;99.90
12520;DHT22;6325;49.540;8.364;2023-08-12T06:51:44;23.40;99.90
12520;DHT22;6325;49.540;8.364;2023-08-12T06:54:10;23.30;99.90
12520;DHT22;6325;49.540;8.364;2023-08-12T06:56:37;24.10;99.90
12520;DHT22;6325;49.540;8.364;2023-08-12T06:59:04;23.90;99.90
12520;DHT22;6325;49.540;8.364;2023-08-12T07:01:31;24.00;99.90
12520;DHT22;6325;49.540;8.364;2023-08-12T07:03:57;24.10;99.90
12520;DHT22;6325;49.540;8.364;2023-08-12T07:06:24;24.50;99.90
12520;DHT22;6325;49.540;8.364;2023-08-12T07:08:52;24.10;99.90
12520;DHT22;6325;49.540;8.364;2023-08-12T07:11:19;24.60;99.90
12520;DHT22;6325;49.540;8.364;2023-08-12T07:13:46;24.20;99.90
12520;DHT22;6325;49.540;8.364;2023-08-12T07:16:12;23.90;99.90
12520;DHT22;6325;49.540;8.364;2023-08-12T07:18:39;24.60;99.90
12520;DHT22;6325;49.540;8.364;2023-08-12T07:21:06;24.10;99.90
12520;DHT22;6325;49.540;8.364;2023-08-12T07:23:33;24.10;99.90
12520;DHT22;6325;49.540;8.364;2023-08-12T07:26:01;24.50;99.90
12520;DHT22;6325;49.540;8.364;2023-08-12T07:28:28;24.20;99.90
12520;DHT22;6325;49.540;8.364;2023-08-12T07:30:54;24.20;99.90
12520;DHT22;6325;49.540;8.364;2023-08-12T07:33:21;24.80;99.90
12520;DHT22;6325;49.540;8.364;2023-08-12T07:35:48;24.70;99.90
12520;DHT22;6325;49.540;8.364;2023-08-12T07:38:15;24.20;99.90
12520;DHT22;6325;49.540;8.364;2023-08-12T07:40:42;24.20;99.90
12520;DHT22;6325;49.540;8.364;2023-08-12T07:43:10;24.30;99.90
12520;DHT22;6325;49.540;8.364;2023-08-12T07:45:36;24.60;99.90
12520;DHT22;6325;49.540;8.364;2023-08-12T07:48:04;24.00;99.90
12520;DHT22;6325;49.540;8.364;2023-08-12T07:50:31;24.40;99.90
12520;DHT22;6325;49.540;8.364;2023-08-12T07:52:57;24.40;99.90
12520;DHT22;6325;49.540;8.364;2023-08-12T07:55:24;24.50;99.90
12520;DHT22;6325;49.540;8.364;2023-08-12T07:57:51;24.60;99.90
12520;DHT22;6325;49.540;8.364;2023-08-12T08:00:19;24.90;99.90
12520;DHT22;6325;49.540;8.364;2023-08-12T08:02:46;24.90;99.90
12520;DHT22;6325;49.540;8.364;2023-08-12T08:05:13;24.90;99.90
12520;DHT22;6325;49.540;8.364;2023-08-12T08:07:39;25.10;99.90
12520;DHT22;6325;49.540;8.364;2023-08-12T08:10:07;25.00;99.90
12520;DHT22;6325;49.540;8.364;2023-08-12T08:12:34;25.00;99.90
12520;DHT22;6325;49.540;8.364;2023-08-12T08:15:00;25.10;99.90
12520;DHT22;6325;49.540;8.364;2023-08-12T08:17:30;25.20;99.90
12520;DHT22;6325;49.540;8.364;2023-08-12T08:19:56;25.10;99.90
12520;DHT22;6325;49.540;8.364;2023-08-12T08:22:23;25.40;99.90
12520;DHT22;6325;49.540;8.364;2023-08-12T08:24:50;25.20;99.90
12520;DHT22;6325;49.540;8.364;2023-08-12T08:27:17;25.40;99.90
12520;DHT22;6325;49.540;8.364;2023-08-12T08:29:44;25.90;99.90
12520;DHT22;6325;49.540;8.364;2023-08-12T08:32:10;25.50;99.90
12520;DHT22;6325;49.540;8.364;2023-08-12T08:34:38;25.70;99.90
12520;DHT22;6325;49.540;8.364;2023-08-12T08:37:05;25.40;99.90
12520;DHT22;6325;49.540;8.364;2023-08-12T08:39:32;26.30;99.90
12520;DHT22;6325;49.540;8.364;2023-08-12T08:41:59;26.50;99.90
12520;DHT22;6325;49.540;8.364;2023-08-12T08:44:29;26.20;99.90
12520;DHT22;6325;49.540;8.364;2023-08-12T08:46:58;26.30;99.90
12520;DHT22;6325;49.540;8.364;2023-08-12T08:49:25;26.60;99.90
12520;DHT22;6325;49.540;8.364;2023-08-12T08:51:54;25.70;99.90
12520;DHT22;6325;49.540;8.364;2023-08-12T08:54:21;25.90;99.90
12520;DHT22;6325;49.540;8.364;2023-08-12T08:56:49;26.00;99.90
12520;DHT22;6325;49.540;8.364;2023-08-12T08:59:16;26.10;99.90
12520;DHT22;6325;49.540;8.364;2023-08-12T09:01:43;26.00;99.90
12520;DHT22;6325;49.540;8.364;2023-08-12T09:04:12;26.10;99.90
12520;DHT22;6325;49.540;8.364;2023-08-12T09:06:40;26.50;99.90
12520;DHT22;6325;49.540;8.364;2023-08-12T09:09:10;26.30;99.90
12520;DHT22;6325;49.540;8.364;2023-08-12T09:11:39;26.50;99.90
12520;DHT22;6325;49.540;8.364;2023-08-12T09:14:06;26.00;99.90
12520;DHT22;6325;49.540;8.364;2023-08-12T09:16:34;26.20;99.90
12520;DHT22;6325;49.540;8.364;2023-08-12T09:19:00;26.10;99.90
12520;DHT22;6325;49.540;8.364;2023-08-12T09:21:27;26.90;99.90
12520;DHT22;6325;49.540;8.364;2023-08-12T09:23:55;26.10;99.90
12520;DHT22;6325;49.540;8.364;2023-08-12T09:26:23;26.80;99.90
12520;DHT22;6325;49.540;8.364;2023-08-12T09:28:49;26.90;99.90
12520;DHT22;6325;49.540;8.364;2023-08-12T09:31:23;26.40;99.90
12520;DHT22;6325;49.540;8.364;2023-08-12T09:33:51;27.00;99.90
12520;DHT22;6325;49.540;8.364;2023-08-12T09:36:18;27.10;99.90
12520;DHT22;6325;49.540;8.364;2023-08-12T09:38:45;27.60;99.90
12520;DHT22;6325;49.540;8.364;2023-08-12T09:41:14;27.30;99.90
12520;DHT22;6325;49.540;8.364;2023-08-12T09:43:44;27.20;99.90
12520;DHT22;6325;49.540;8.364;2023-08-12T09:46:11;27.30;99.90
12520;DHT22;6325;49.540;8.364;2023-08-12T09:48:39;27.20;99.90
12520;DHT22;6325;49.540;8.364;2023-08-12T09:51:06;27.30;99.90
12520;DHT22;6325;49.540;8.364;2023-08-12T09:53:33;27.30;99.90
12520;DHT22;6325;49.540;8.364;2023-08-12T09:56:03;27.30;99.90
12520;DHT22;6325;49.540;8.364;2023-08-12T09:58:32;27.40;99.90
12520;DHT22;6325;49.540;8.364;2023-08-12T10:01:02;27.10;99.90
12520;DHT22;6325;49.540;8.364;2023-08-12T10:03:30;27.20;99.90
12520;DHT22;6325;49.540;8.364;2023-08-12T10:05:58;28.30;99.90
12520;DHT22;6325;49.540;8.364;2023-08-12T10:08:27;28.00;99.90
12520;DHT22;6325;49.540;8.364;2023-08-12T10:10:54;28.20;99.90
12520;DHT22;6325;49.540;8.364;2023-08-12T10:13:21;27.50;99.90
12520;DHT22;6325;49.540;8.364;2023-08-12T10:15:48;27.90;99.90
12520;DHT22;6325;49.540;8.364;2023-08-12T10:18:18;27.70;99.90
12520;DHT22;6325;49.540;8.364;2023-08-12T10:20:45;28.40;99.90
12520;DHT22;6325;49.540;8.364;2023-08-12T10:23:15;27.90;99.90
12520;DHT22;6325;49.540;8.364;2023-08-12T10:25:44;27.60;99.90
12520;DHT22;6325;49.540;8.364;2023-08-12T10:28:11;28.30;99.90
12520;DHT22;6325;49.540;8.364;2023-08-12T10:30:40;27.80;99.90
12520;DHT22;6325;49.540;8.364;2023-08-12T10:33:07;28.00;99.90
12520;DHT22;6325;49.540;8.364;2023-08-12T10:35:43;27.70;99.90
12520;DHT22;6325;49.540;8.364;2023-08-12T10:38:11;27.60;99.90
12520;DHT22;6325;49.540;8.364;2023-08-12T10:40:40;27.70;99.90
12520;DHT22;6325;49.540;8.364;2023-08-12T10:43:06;27.60;99.90
12520;DHT22;6325;49.540;8.364;2023-08-12T10:45:46;27.40;99.90
12520;DHT22;6325;49.540;8.364;2023-08-12T10:48:18;27.20;99.90
12520;DHT22;6325;49.540;8.364;2023-08-12T10:50:49;27.30;99.90
12520;DHT22;6325;49.540;8.364;2023-08-12T10:53:25;27.10;99.90
12520;DHT22;6325;49.540;8.364;2023-08-12T10:55:56;26.80;99.90
12520;DHT22;6325;49.540;8.364;2023-08-12T10:58:28;26.00;99.90
12520;DHT22;6325;49.540;8.364;2023-08-12T11:00:55;25.60;99.90
12520;DHT22;6325;49.540;8.364;2023-08-12T11:03:22;25.20;99.90
12520;DHT22;6325;49.540;8.364;2023-08-12T11:05:51;24.90;99.90
12520;DHT22;6325;49.540;8.364;2023-08-12T11:08:25;24.40;99.90
12520;DHT22;6325;49.540;8.364;2023-08-12T11:10:55;24.10;99.90
12520;DHT22;6325;49.540;8.364;2023-08-12T11:13:23;23.70;99.90
12520;DHT22;6325;49.540;8.364;2023-08-12T11:15:49;23.40;99.90
12520;DHT22;6325;49.540;8.364;2023-08-12T11:18:17;23.20;99.90
12520;DHT22;6325;49.540;8.364;2023-08-12T11:20:46;22.50;99.90
12520;DHT22;6325;49.540;8.364;2023-08-12T11:23:16;22.80;99.90
12520;DHT22;6325;49.540;8.364;2023-08-12T11:25:44;22.40;99.90
12520;DHT22;6325;49.540;8.364;2023-08-12T11:28:11;22.90;99.90
12520;DHT22;6325;49.540;8.364;2023-08-12T11:30:40;22.30;99.90
12520;DHT22;6325;49.540;8.364;2023-08-12T11:33:07;23.20;99.90
12520;DHT22;6325;49.540;8.364;2023-08-12T11:35:34;22.20;99.90
12520;DHT22;6325;49.540;8.364;2023-08-12T11:38:01;22.70;99.90
12520;DHT22;6325;49.540;8.364;2023-08-12T11:40:30;22.50;99.90
12520;DHT22;6325;49.540;8.364;2023-08-12T11:42:57;22.50;99.90
12520;DHT22;6325;49.540;8.364;2023-08-12T11:45:25;22.70;99.90
12520;DHT22;6325;49.540;8.364;2023-08-12T11:47:52;22.30;99.90
12520;DHT22;6325;49.540;8.364;2023-08-12T11:50:21;22.60;99.90
12520;DHT22;6325;49.540;8.364;2023-08-12T11:52:50;22.50;99.90
12520;DHT22;6325;49.540;8.364;2023-08-12T11:55:17;22.70;99.90
12520;DHT22;6325;49.540;8.364;2023-08-12T11:57:45;22.40;99.90
12520;DHT22;6325;49.540;8.364;2023-08-12T12:00:13;22.60;99.90
12520;DHT22;6325;49.540;8.364;2023-08-12T12:02:44;23.00;99.90
12520;DHT22;6325;49.540;8.364;2023-08-12T12:05:12;22.10;99.90
12520;DHT22;6325;49.540;8.364;2023-08-12T12:07:39;22.30;99.90
12520;DHT22;6325;49.540;8.364;2023-08-12T12:10:07;23.10;99.90
12520;DHT22;6325;49.540;8.364;2023-08-12T12:12:34;23.00;99.90
12520;DHT22;6325;49.540;8.364;2023-08-12T12:15:04;23.10;99.90
12520;DHT22;6325;49.540;8.364;2023-08-12T12:17:31;23.70;99.90
12520;DHT22;6325;49.540;8.364;2023-08-12T12:20:00;23.30;99.90
12520;DHT22;6325;49.540;8.364;2023-08-12T12:22:28;22.90;99.90
12520;DHT22;6325;49.540;8.364;2023-08-12T12:24:57;23.50;99.90
12520;DHT22;6325;49.540;8.364;2023-08-12T12:27:24;23.80;99.90
12520;DHT22;6325;49.540;8.364;2023-08-12T12:29:51;23.90;99.90
12520;DHT22;6325;49.540;8.364;2023-08-12T12:32:20;23.90;99.90
12520;DHT22;6325;49.540;8.364;2023-08-12T12:34:47;24.10;99.90
12520;DHT22;6325;49.540;8.364;2023-08-12T12:37:14;24.10;99.90
12520;DHT22;6325;49.540;8.364;2023-08-12T12:39:41;23.60;99.90
12520;DHT22;6325;49.540;8.364;2023-08-12T12:42:08;23.90;99.90
12520;DHT22;6325;49.540;8.364;2023-08-12T12:44:35;24.10;99.90
12520;DHT22;6325;49.540;8.364;2023-08-12T12:47:02;24.10;99.90
12520;DHT22;6325;49.540;8.364;2023-08-12T12:49:30;24.40;99.90
12520;DHT22;6325;49.540;8.364;2023-08-12T12:51:57;24.80;99.90
12520;DHT22;6325;49.540;8.364;2023-08-12T12:54:24;24.70;99.90
12520;DHT22;6325;49.540;8.364;2023-08-12T12:56:51;24.80;99.90
12520;DHT22;6325;49.540;8.364;2023-08-12T12:59:18;24.80;99.90
12520;DHT22;6325;49.540;8.364;2023-08-12T13:01:45;24.80;99.90
12520;DHT22;6325;49.540;8.364;2023-08-12T13:04:11;24.40;99.90
12520;DHT22;6325;49.540;8.364;2023-08-12T13:06:39;24.70;99.90
12520;DHT22;6325;49.540;8.364;2023-08-12T13:09:06;24.40;99.90
12520;DHT22;6325;49.540;8.364;2023-08-12T13:11:34;24.20;99.90
12520;DHT22;6325;49.540;8.364;2023-08-12T13:14:02;24.50;99.90
12520;DHT22;6325;49.540;8.364;2023-08-12T13:16:30;24.40;99.90
12520;DHT22;6325;49.540;8.364;2023-08-12T13:18:57;24.80;99.90
12520;DHT22;6325;49.540;8.364;2023-08-12T13:21:25;24.90;99.90
12520;DHT22;6325;49.540;8.364;2023-08-12T13:23:53;25.10;99.90
12520;DHT22;6325;49.540;8.364;2023-08-12T13:26:21;25.00;99.90
12520;DHT22;6325;49.540;8.364;2023-08-12T13:28:47;24.90;99.90
12520;DHT22;6325;49.540;8.364;2023-08-12T13:31:14;25.10;99.90
12520;DHT22;6325;49.540;8.364;2023-08-12T13:33:42;25.10;99.90
12520;DHT22;6325;49.540;8.364;2023-08-12T13:36:08;24.80;99.90
12520;DHT22;6325;49.540;8.364;2023-08-12T13:38:35;25.20;99.90
12520;DHT22;6325;49.540;8.364;2023-08-12T13:41:03;25.20;99.90
12520;DHT22;6325;49.540;8.364;2023-08-12T13:43:30;25.20;99.90
12520;DHT22;6325;49.540;8.364;2023-08-12T13:45:57;25.10;99.90
12520;DHT22;6325;49.540;8.364;2023-08-12T13:48:23;25.40;99.90
12520;DHT22;6325;49.540;8.364;2023-08-12T13:50:50;25.00;99.90
12520;DHT22;6325;49.540;8.364;2023-08-12T13:53:17;25.00;99.90
12520;DHT22;6325;49.540;8.364;2023-08-12T13:55:44;25.20;99.90
12520;DHT22;6325;49.540;8.364;2023-08-12T13:58:13;24.90;99.90
12520;DHT22;6325;49.540;8.364;2023-08-12T14:00:39;25.50;99.90
12520;DHT22;6325;49.540;8.364;2023-08-12T14:03:06;25.50;99.90
12520;DHT22;6325;49.540;8.364;2023-08-12T14:05:34;25.70;99.90
12520;DHT22;6325;49.540;8.364;2023-08-12T14:08:00;25.70;99.90
12520;DHT22;6325;49.540;8.364;2023-08-12T14:10:27;25.40;99.90
12520;DHT22;6325;49.540;8.364;2023-08-12T14:12:54;26.00;99.90
12520;DHT22;6325;49.540;8.364;2023-08-12T14:15:22;26.10;99.90
12520;DHT22;6325;49.540;8.364;2023-08-12T14:17:49;25.70;99.90
12520;DHT22;6325;49.540;8.364;2023-08-12T14:20:15;26.20;99.90
12520;DHT22;6325;49.540;8.364;2023-08-12T14:22:43;26.60;99.90
12520;DHT22;6325;49.540;8.364;2023-08-12T14:25:10;26.60;99.90
12520;DHT22;6325;49.540;8.364;2023-08-12T14:27:37;26.50;99.90
12520;DHT22;6325;49.540;8.364;2023-08-12T14:30:05;26.70;99.90
12520;DHT22;6325;49.540;8.364;2023-08-12T14:32:33;26.10;99.90
12520;DHT22;6325;49.540;8.364;2023-08-12T14:35:00;26.40;99.90
12520;DHT22;6325;49.540;8.364;2023-08-12T14:37:27;25.90;99.90
12520;DHT22;6325;49.540;8.364;2023-08-12T14:39:54;26.10;99.90
12520;DHT22;6325;49.540;8.364;2023-08-12T14:42:21;25.70;99.90
12520;DHT22;6325;49.540;8.364;2023-08-12T14:44:49;25.90;99.90
12520;DHT22;6325;49.540;8.364;2023-08-12T14:47:16;26.10;99.90
12520;DHT22;6325;49.540;8.364;2023-08-12T14:49:44;26.10;99.90
12520;DHT22;6325;49.540;8.364;2023-08-12T14:52:16;26.00;99.90
12520;DHT22;6325;49.540;8.364;2023-08-12T14:54:42;26.30;99.90
12520;DHT22;6325;49.540;8.364;2023-08-12T14:57:09;26.80;99.90
12520;DHT22;6325;49.540;8.364;2023-08-12T14:59:36;27.20;99.90
12520;DHT22;6325;49.540;8.364;2023-08-12T15:02:03;26.50;99.90
12520;DHT22;6325;49.540;8.364;2023-08-12T15:04:30;26.80;99.90
12520;DHT22;6325;49.540;8.364;2023-08-12T15:06:58;27.20;99.90
12520;DHT22;6325;49.540;8.364;2023-08-12T15:09:24;26.70;99.90
12520;DHT22;6325;49.540;8.364;2023-08-12T15:11:51;26.90;99.90
12520;DHT22;6325;49.540;8.364;2023-08-12T15:14:18;26.60;99.90
12520;DHT22;6325;49.540;8.364;2023-08-12T15:16:45;27.40;99.90
12520;DHT22;6325;49.540;8.364;2023-08-12T15:19:11;27.40;99.90
12520;DHT22;6325;49.540;8.364;2023-08-12T15:21:38;27.50;99.90
12520;DHT22;6325;49.540;8.364;2023-08-12T15:24:07;27.60;99.90
12520;DHT22;6325;49.540;8.364;2023-08-12T15:26:33;27.60;99.90
12520;DHT22;6325;49.540;8.364;2023-08-12T15:29:00;26.80;99.90
12520;DHT22;6325;49.540;8.364;2023-08-12T15:31:27;26.90;99.90
12520;DHT22;6325;49.540;8.364;2023-08-12T15:33:55;27.00;99.90
12520;DHT22;6325;49.540;8.364;2023-08-12T15:36:21;26.90;99.90
12520;DHT22;6325;49.540;8.364;2023-08-12T15:38:48;26.50;99.90
12520;DHT22;6325;49.540;8.364;2023-08-12T15:41:17;26.50;99.90
12520;DHT22;6325;49.540;8.364;2023-08-12T15:43:43;26.60;99.90
12520;DHT22;6325;49.540;8.364;2023-08-12T15:46:10;26.10;99.90